עמוד ראשי
METAR-TAF:

METAR-TAF

שדות תעופה :

ביירות, לבנון

קו רוחב: 33-49N, קו אורך: 035-29E, גובה: 29מטר

תצפית מזג אוויר נוכחית

הדו"ח נערך לפני 1 שעות ו 10דקות, בשעה 05:00 UTC
רוח 2קשר עם כיוונים משתנים
טמפרטורת 28 צלסיוס
לחות 70%
לחץ 1010 hPa
ראות: 6000מטר
עננים בינוניים בגובה 2600רגל

METAR: OLBA 200500Z VRB02KT 6000 BKN026 28/22 Q1010 NOSIG

זמן: 09:10 (06:10 UTC)

תחזית

הדו"ח נערך לפני 2 שעות ו 10דקות, בשעה 04:00 UTC
תחזית בתוקף מ 20 ב 06 UTC עד 21 ב 12 UTC
רוח 8קשר מכיוון מערב
ראות: 7000מטר
עננים פזורים בגובה 2600רגל
הסתברות 40% :
זמנית מ -
20 ב 00 UTC עד 21 ב 12 UTC
ראות: 5000מטר
אד
יעשה מ
20 ב 06 UTC עד 20 ב 08 UTC
רוח 8קשר מכיוון מערב
עננים פזורים בגובה 2600רגל
יעשה מ
20 ב 20 UTC עד 20 ב 22 UTC
רוח 6קשר מכיוון דרום-מזרח
יעשה מ
21 ב 06 UTC עד 21 ב 08 UTC
רוח 8קשר מכיוון מערב/דרום-מערב

TAF: OLBA 200400Z 2006/2112 28008KT 7000 SCT026 PROB40 TEMPO 2000/2112 5000 BR BECMG 2006/2008 26008KT SCT026 BECMG 2020/2022 14006KT BECMG 2106/2108 24008KT

תצפיות ותחזיות מזג אוויר לגבי יותר מ- 4,000 שדות תעופה ברחבי העולם. דוחות METAR ו- TAF.

התחנות הזמינות מסומנות בנקודות צהובות ואדומות על גבי המפה.

העבר את העכבר לנקודה הצבעונית על מנת לראות את שם התחנה.

לאחר מכן, לחץ כדי לראות את תוכן ואת תחזיות מזג האוויר.

כדי לשנות את המפה: לחץ על הכפתורים הירוקים עם הפלוס השחור כדי להתקרב; על הכפתור הירוק עם המקף כדי להתרחק; או בחיצים הירוקים למפות סמוכות.


METAR-TAF: